createdAt,value
2022-10-12T00:01:19.683Z,8.75
2022-10-12T00:03:46.324Z,9.27
2022-10-12T00:06:16.309Z,8.52
2022-10-12T00:08:44.035Z,9.52
2022-10-12T00:11:19.423Z,10.85
2022-10-12T00:13:46.655Z,10.45
2022-10-12T00:16:14.788Z,10.10
2022-10-12T00:18:41.389Z,9.73
2022-10-12T00:21:15.918Z,9.82
2022-10-12T00:23:43.800Z,10.52
2022-10-12T00:26:16.773Z,10.68
2022-10-12T00:28:43.979Z,11.23
2022-10-12T00:31:19.541Z,9.75
2022-10-12T00:33:47.341Z,10.38
2022-10-12T00:36:21.060Z,9.77
2022-10-12T00:38:49.343Z,10.77
2022-10-12T00:41:17.565Z,10.68
2022-10-12T00:43:46.230Z,10.68
2022-10-12T00:46:22.048Z,11.15
2022-10-12T00:48:54.963Z,11.75
2022-10-12T00:51:22.648Z,10.77
2022-10-12T00:53:55.381Z,10.70
2022-10-12T00:56:25.432Z,10.05
2022-10-12T00:58:54.787Z,10.57
2022-10-12T01:01:22.804Z,12.57
2022-10-12T01:03:50.280Z,11.93
2022-10-12T01:06:17.857Z,10.55
2022-10-12T01:08:45.137Z,12.57
2022-10-12T01:11:11.741Z,11.45
2022-10-12T01:13:38.515Z,10.40
2022-10-12T01:16:13.252Z,11.15
2022-10-12T01:18:49.531Z,9.55
2022-10-12T01:21:23.436Z,10.48
2022-10-12T01:23:58.988Z,10.73
2022-10-12T01:26:43.915Z,10.90
2022-10-12T01:29:32.142Z,9.77
2022-10-12T01:31:58.670Z,11.35
2022-10-12T01:34:58.901Z,10.52
2022-10-12T01:37:58.757Z,11.48
2022-10-12T01:40:44.527Z,11.00
2022-10-12T01:43:11.206Z,10.30
2022-10-12T01:45:37.883Z,11.35
2022-10-12T01:48:05.039Z,11.13
2022-10-12T01:50:47.893Z,11.20
2022-10-12T01:53:32.822Z,11.73
2022-10-12T01:56:11.609Z,10.77
2022-10-12T01:59:13.947Z,10.65
2022-10-12T02:01:50.075Z,11.82
2022-10-12T02:04:34.415Z,11.27
2022-10-12T02:07:15.208Z,11.32
2022-10-12T02:09:43.217Z,11.20
2022-10-12T02:12:16.484Z,11.57
2022-10-12T02:14:50.627Z,11.68
2022-10-12T02:17:20.421Z,11.20
2022-10-12T02:19:56.915Z,10.52
2022-10-12T02:22:34.212Z,11.25
2022-10-12T02:25:04.406Z,10.98
2022-10-12T02:27:34.953Z,10.80
2022-10-12T02:30:02.676Z,9.85
2022-10-12T02:32:41.151Z,11.20
2022-10-12T02:35:34.135Z,10.32
2022-10-12T02:38:04.041Z,11.02
2022-10-12T02:40:54.376Z,10.60
2022-10-12T02:43:25.265Z,11.48
2022-10-12T02:45:55.631Z,11.02
2022-10-12T02:48:24.747Z,11.27
2022-10-12T02:50:55.637Z,10.77
2022-10-12T02:53:24.238Z,9.55
2022-10-12T02:55:53.508Z,10.30
2022-10-12T02:58:20.299Z,11.10
2022-10-12T03:00:47.032Z,10.60
2022-10-12T03:03:13.645Z,10.55
2022-10-12T03:05:40.224Z,11.35
2022-10-12T03:08:06.797Z,10.65
2022-10-12T03:10:33.352Z,11.63
2022-10-12T03:12:59.951Z,11.55
2022-10-12T03:15:26.541Z,11.23
2022-10-12T03:17:53.133Z,10.88
2022-10-12T03:20:20.079Z,12.23
2022-10-12T03:22:46.793Z,11.35
2022-10-12T03:25:13.449Z,11.25
2022-10-12T03:27:40.488Z,11.90
2022-10-12T03:30:11.485Z,13.05
2022-10-12T03:32:39.832Z,11.15
2022-10-12T03:35:07.109Z,12.27
2022-10-12T03:37:33.731Z,12.13
2022-10-12T03:40:00.318Z,12.25
2022-10-12T03:42:26.882Z,11.25
2022-10-12T03:44:53.447Z,12.93
2022-10-12T03:47:20.009Z,11.82
2022-10-12T03:49:46.551Z,12.35
2022-10-12T03:52:13.086Z,11.93
2022-10-12T03:54:39.638Z,13.52
2022-10-12T03:57:06.188Z,10.85
2022-10-12T03:59:32.744Z,13.50
2022-10-12T04:01:59.272Z,12.05
2022-10-12T04:04:25.878Z,12.80
2022-10-12T04:06:52.402Z,11.50
2022-10-12T04:09:18.970Z,12.45
2022-10-12T04:11:45.502Z,11.48
2022-10-12T04:14:12.046Z,12.07
2022-10-12T04:16:38.794Z,11.93
2022-10-12T04:19:05.447Z,12.05
2022-10-12T04:21:32.298Z,11.90
2022-10-12T04:23:59.020Z,12.45
2022-10-12T04:26:25.548Z,11.27
2022-10-12T04:28:52.197Z,12.07
2022-10-12T04:31:18.929Z,10.70
2022-10-12T04:33:45.525Z,11.55
2022-10-12T04:36:12.127Z,10.98
2022-10-12T04:38:38.777Z,11.73
2022-10-12T04:41:05.515Z,10.13
2022-10-12T04:43:32.160Z,11.60
2022-10-12T04:46:00.152Z,12.10
2022-10-12T04:48:27.445Z,9.85
2022-10-12T04:50:54.055Z,11.93
2022-10-12T04:53:20.798Z,11.45
2022-10-12T04:55:47.450Z,11.68
2022-10-12T04:58:14.170Z,12.40
2022-10-12T05:00:41.020Z,11.40
2022-10-12T05:03:07.602Z,12.25
2022-10-12T05:05:35.999Z,12.77
2022-10-12T05:08:03.962Z,12.45
2022-10-12T05:10:30.610Z,12.48
2022-10-12T05:12:57.372Z,12.40
2022-10-12T05:15:24.123Z,11.85
2022-10-12T05:17:50.698Z,12.63
2022-10-12T05:20:17.307Z,11.07
2022-10-12T05:22:43.909Z,11.77
2022-10-12T05:25:10.560Z,10.60
2022-10-12T05:27:37.429Z,12.73
2022-10-12T05:30:05.869Z,12.45
2022-10-12T05:32:32.417Z,11.82
2022-10-12T05:34:59.051Z,13.10
2022-10-12T05:37:25.600Z,12.10
2022-10-12T05:39:52.190Z,14.57
2022-10-12T05:42:18.791Z,12.68
2022-10-12T05:44:48.380Z,10.93
2022-10-12T05:47:15.217Z,10.75
2022-10-12T05:49:44.478Z,12.15
2022-10-12T05:52:11.119Z,11.45
2022-10-12T05:54:37.675Z,15.00
2022-10-12T05:57:04.223Z,13.18
2022-10-12T05:59:30.893Z,13.10
2022-10-12T06:01:57.575Z,10.88
2022-10-12T06:04:24.271Z,11.48
2022-10-12T06:06:50.812Z,12.38
2022-10-12T06:09:17.490Z,12.43
2022-10-12T06:11:44.017Z,13.60
2022-10-12T06:14:10.555Z,13.45
2022-10-12T06:16:37.278Z,13.02
2022-10-12T06:19:03.925Z,12.73
2022-10-12T06:21:34.512Z,12.52
2022-10-12T06:24:01.465Z,14.27
2022-10-12T06:26:28.154Z,11.75
2022-10-12T06:28:54.809Z,13.05
2022-10-12T06:31:21.718Z,13.18
2022-10-12T06:33:50.202Z,12.70
2022-10-12T06:36:16.907Z,13.05
2022-10-12T06:38:43.507Z,12.27
2022-10-12T06:41:10.147Z,12.82
2022-10-12T06:43:36.892Z,11.85
2022-10-12T06:46:04.093Z,12.07
2022-10-12T06:48:30.698Z,11.02
2022-10-12T06:50:57.372Z,12.90
2022-10-12T06:53:25.458Z,12.32
2022-10-12T06:55:52.014Z,12.00
2022-10-12T06:58:18.833Z,11.73
2022-10-12T07:00:45.475Z,12.27
2022-10-12T07:03:13.541Z,10.63
2022-10-12T07:05:40.175Z,11.65
2022-10-12T07:08:06.721Z,12.70
2022-10-12T07:10:33.506Z,11.07
2022-10-12T07:13:00.115Z,13.23
2022-10-12T07:15:26.870Z,10.77
2022-10-12T07:17:53.413Z,11.15
2022-10-12T07:20:19.966Z,12.05
2022-10-12T07:22:46.527Z,10.77
2022-10-12T07:25:13.130Z,11.65
2022-10-12T07:27:40.176Z,11.25
2022-10-12T07:30:07.865Z,10.68
2022-10-12T07:32:34.408Z,11.02
2022-10-12T07:35:00.956Z,11.77
2022-10-12T07:37:27.527Z,11.35
2022-10-12T07:39:57.307Z,11.55
2022-10-12T07:42:25.152Z,11.98
2022-10-12T07:44:51.904Z,11.57
2022-10-12T07:47:19.379Z,10.45
2022-10-12T07:49:46.217Z,9.27
2022-10-12T07:52:13.076Z,10.30
2022-10-12T07:54:39.766Z,11.20
2022-10-12T07:57:06.418Z,10.43
2022-10-12T07:59:32.958Z,9.75
2022-10-12T08:01:59.701Z,9.85
2022-10-12T08:04:26.464Z,10.23
2022-10-12T08:06:53.112Z,10.05
2022-10-12T08:09:19.773Z,9.45
2022-10-12T08:11:46.502Z,10.23
2022-10-12T08:14:14.933Z,9.35
2022-10-12T08:16:43.135Z,8.57
2022-10-12T08:19:10.417Z,9.30
2022-10-12T08:21:37.016Z,8.75
2022-10-12T08:24:03.829Z,8.88
2022-10-12T08:26:30.522Z,8.52
2022-10-12T08:28:57.307Z,8.85
2022-10-12T08:31:24.276Z,9.40
2022-10-12T08:33:50.855Z,9.18
2022-10-12T08:36:17.474Z,9.50
2022-10-12T08:38:44.121Z,9.25
2022-10-12T08:41:25.666Z,9.35
2022-10-12T08:46:33.874Z,9.10
2022-10-12T08:49:26.473Z,9.80
2022-10-12T08:51:55.952Z,10.27
2022-10-12T08:54:26.029Z,10.57
2022-10-12T08:56:54.257Z,10.57
2022-10-12T08:59:21.025Z,10.35
2022-10-12T09:02:26.460Z,8.90
2022-10-12T09:05:16.846Z,9.27
2022-10-12T09:07:55.357Z,8.18
2022-10-12T09:10:38.304Z,8.25
2022-10-12T09:13:11.159Z,8.02
2022-10-12T09:15:52.845Z,8.65
2022-10-12T09:18:30.179Z,8.70
2022-10-12T09:20:57.945Z,8.30
2022-10-12T09:23:34.701Z,9.05
2022-10-12T09:26:12.060Z,8.18
2022-10-12T09:28:50.871Z,7.68
2022-10-12T09:31:35.524Z,8.77
2022-10-12T09:34:06.666Z,7.43
2022-10-12T09:36:39.337Z,8.13
2022-10-12T09:39:26.867Z,7.50
2022-10-12T09:41:58.408Z,7.85
2022-10-12T09:44:49.333Z,8.93
2022-10-12T09:47:23.577Z,7.35
2022-10-12T09:49:51.903Z,8.63
2022-10-12T09:52:24.698Z,9.20
2022-10-12T09:54:54.581Z,8.57
2022-10-12T09:57:29.990Z,9.38
2022-10-12T09:59:57.012Z,8.15
2022-10-12T10:02:27.326Z,7.90
2022-10-12T10:04:55.121Z,7.88
2022-10-12T10:07:29.792Z,6.70
2022-10-12T10:10:37.460Z,7.88
2022-10-12T10:13:06.238Z,7.00
2022-10-12T10:15:35.750Z,7.10
2022-10-12T10:18:22.341Z,6.78
2022-10-12T10:20:54.565Z,6.45
2022-10-12T10:23:25.954Z,6.75
2022-10-12T10:26:04.709Z,6.03
2022-10-12T10:28:37.109Z,7.10
2022-10-12T10:31:07.248Z,6.63
2022-10-12T10:33:36.281Z,6.68
2022-10-12T10:36:04.704Z,6.13
2022-10-12T10:38:47.967Z,7.22
2022-10-12T10:41:18.200Z,7.35
2022-10-12T10:43:48.961Z,7.20
2022-10-12T10:46:23.834Z,5.68
2022-10-12T10:48:58.921Z,5.55
2022-10-12T10:51:43.151Z,5.97
2022-10-12T10:54:16.348Z,6.15
2022-10-12T10:56:44.497Z,5.97
2022-10-12T10:59:40.455Z,6.10
2022-10-12T11:02:34.947Z,6.18
2022-10-12T11:05:08.041Z,6.45
2022-10-12T11:07:41.434Z,5.72
2022-10-12T11:10:31.271Z,6.25
2022-10-12T11:13:12.529Z,5.70
2022-10-12T11:15:47.241Z,6.47
2022-10-12T11:18:26.034Z,5.78
2022-10-12T11:20:58.227Z,6.00
2022-10-12T11:24:02.195Z,6.38
2022-10-12T11:26:28.692Z,5.82
2022-10-12T11:28:58.557Z,6.53
2022-10-12T11:31:32.095Z,6.15
2022-10-12T11:34:03.216Z,5.53
2022-10-12T11:36:32.335Z,5.90
2022-10-12T11:39:07.081Z,6.32
2022-10-12T11:42:16.909Z,6.13
2022-10-12T11:44:45.822Z,6.72
2022-10-12T11:47:41.771Z,5.75
2022-10-12T11:50:32.752Z,5.30
2022-10-12T11:53:02.585Z,5.70
2022-10-12T11:55:31.952Z,4.40
2022-10-12T11:58:08.722Z,4.20
2022-10-12T12:01:12.913Z,6.10
2022-10-12T12:03:45.660Z,5.07
2022-10-12T12:06:52.345Z,4.00
2022-10-12T12:09:40.618Z,4.00
2022-10-12T12:12:28.882Z,5.13
2022-10-12T12:14:55.396Z,4.82
2022-10-12T12:17:22.006Z,4.40
2022-10-12T12:19:49.760Z,5.10
2022-10-12T12:22:18.248Z,5.05
2022-10-12T12:25:11.423Z,4.72
2022-10-12T12:27:46.392Z,4.53
2022-10-12T12:30:18.983Z,5.47
2022-10-12T12:33:25.727Z,5.03
2022-10-12T12:35:54.559Z,4.50
2022-10-12T12:38:45.709Z,4.90
2022-10-12T12:41:13.879Z,4.90
2022-10-12T12:43:56.205Z,4.63
2022-10-12T12:46:25.180Z,5.03
2022-10-12T12:48:51.678Z,4.97
2022-10-12T12:51:35.224Z,3.97
2022-10-12T12:54:03.779Z,4.63
2022-10-12T12:56:36.315Z,4.50
2022-10-12T12:59:18.045Z,4.95
2022-10-12T13:02:23.899Z,4.15
2022-10-12T13:05:23.951Z,4.28
2022-10-12T13:08:05.782Z,4.20
2022-10-12T13:10:39.236Z,3.97
2022-10-12T13:13:40.160Z,4.78
2022-10-12T13:19:37.265Z,4.10
2022-10-12T13:22:23.534Z,5.00
2022-10-12T13:24:54.576Z,5.20
2022-10-12T13:27:27.184Z,4.75
2022-10-12T13:30:06.551Z,3.80
2022-10-12T13:32:46.134Z,4.35
2022-10-12T13:35:22.011Z,3.90
2022-10-12T13:38:00.594Z,4.38
2022-10-12T13:40:38.913Z,4.25
2022-10-12T13:43:27.809Z,4.93
2022-10-12T13:45:54.648Z,3.13
2022-10-12T13:48:46.556Z,4.38
2022-10-12T13:51:26.323Z,4.00
2022-10-12T13:53:53.473Z,4.50
2022-10-12T13:56:23.918Z,4.07
2022-10-12T13:59:01.691Z,4.50
2022-10-12T14:01:29.800Z,3.67
2022-10-12T14:04:04.841Z,3.70
2022-10-12T14:06:38.046Z,3.92
2022-10-12T14:09:19.685Z,3.53
2022-10-12T14:14:43.246Z,3.75
2022-10-12T14:17:15.558Z,3.17
2022-10-12T14:19:46.681Z,4.18
2022-10-12T14:22:29.202Z,3.33
2022-10-12T14:25:09.939Z,3.90
2022-10-12T14:27:38.914Z,3.67
2022-10-12T14:30:27.696Z,4.15
2022-10-12T14:32:59.749Z,3.63
2022-10-12T14:35:29.463Z,3.53
2022-10-12T14:37:57.183Z,3.28
2022-10-12T14:40:32.609Z,3.65
2022-10-12T14:43:05.111Z,4.15
2022-10-12T14:45:32.889Z,5.07
2022-10-12T14:48:01.384Z,4.85
2022-10-12T14:50:31.308Z,4.10
2022-10-12T14:53:02.765Z,4.05
2022-10-12T14:55:33.940Z,4.95
2022-10-12T15:00:30.223Z,5.00
2022-10-12T15:02:57.607Z,5.07
2022-10-12T15:05:25.828Z,4.43
2022-10-12T15:07:52.906Z,5.35
2022-10-12T15:10:22.706Z,5.80
2022-10-12T15:12:50.329Z,4.47
2022-10-12T15:15:32.237Z,4.65
2022-10-12T15:17:59.373Z,4.57
2022-10-12T15:20:28.154Z,4.00
2022-10-12T15:22:54.747Z,5.13
2022-10-12T15:25:44.259Z,5.05
2022-10-12T15:28:10.947Z,4.70
2022-10-12T15:30:52.085Z,5.00
2022-10-12T15:33:24.788Z,5.20
2022-10-12T15:35:51.583Z,4.80
2022-10-12T15:38:18.214Z,4.22
2022-10-12T15:40:46.179Z,4.90
2022-10-12T15:43:13.226Z,5.30
2022-10-12T15:45:40.827Z,4.60
2022-10-12T15:48:09.802Z,5.45
2022-10-12T15:50:49.730Z,5.13
2022-10-12T15:53:20.888Z,5.10
2022-10-12T15:55:47.928Z,4.57
2022-10-12T15:58:14.684Z,5.60
2022-10-12T16:00:41.793Z,5.47
2022-10-12T16:03:15.053Z,5.82
2022-10-12T16:05:41.827Z,4.93
2022-10-12T16:08:08.429Z,4.72
2022-10-12T16:10:38.409Z,4.97
2022-10-12T16:13:11.260Z,5.97
2022-10-12T16:15:38.071Z,4.95
2022-10-12T16:18:05.312Z,4.43
2022-10-12T16:20:33.829Z,4.70
2022-10-12T16:23:01.121Z,5.75
2022-10-12T16:25:28.264Z,5.53
2022-10-12T16:27:56.813Z,6.30
2022-10-12T16:30:25.421Z,5.40
2022-10-12T16:32:52.577Z,5.25
2022-10-12T16:35:19.467Z,5.28
2022-10-12T16:37:46.344Z,5.15
2022-10-12T16:40:13.477Z,5.38
2022-10-12T16:42:40.316Z,5.65
2022-10-12T16:45:07.489Z,5.45
2022-10-12T16:47:37.719Z,5.72
2022-10-12T16:50:07.428Z,4.82
2022-10-12T16:52:34.066Z,5.28
2022-10-12T16:55:00.687Z,5.75
2022-10-12T16:57:27.562Z,5.47
2022-10-12T16:59:54.183Z,5.57
2022-10-12T17:02:20.784Z,5.93
2022-10-12T17:04:47.441Z,5.63
2022-10-12T17:07:14.199Z,6.32
2022-10-12T17:09:40.781Z,5.57
2022-10-12T17:12:07.942Z,5.68
2022-10-12T17:14:34.537Z,5.72
2022-10-12T17:17:01.455Z,5.80
2022-10-12T17:19:31.859Z,6.18
2022-10-12T17:22:00.761Z,6.55
2022-10-12T17:24:29.289Z,5.35
2022-10-12T17:26:56.962Z,5.63
2022-10-12T17:29:25.756Z,6.78
2022-10-12T17:31:53.921Z,6.70
2022-10-12T17:34:29.388Z,7.00
2022-10-12T17:36:58.471Z,6.35
2022-10-12T17:39:27.785Z,6.40
2022-10-12T17:41:54.924Z,6.00
2022-10-12T17:44:21.674Z,7.32
2022-10-12T17:46:52.112Z,6.45
2022-10-12T17:49:24.494Z,6.25
2022-10-12T17:51:52.201Z,7.13
2022-10-12T17:54:20.267Z,6.80
2022-10-12T17:56:46.978Z,6.82
2022-10-12T17:59:16.345Z,6.40
2022-10-12T18:01:43.485Z,7.20
2022-10-12T18:04:11.383Z,6.40
2022-10-12T18:06:38.932Z,6.93
2022-10-12T18:09:07.254Z,6.70
2022-10-12T18:11:34.162Z,6.20
2022-10-12T18:14:01.111Z,6.40
2022-10-12T18:16:30.733Z,6.80
2022-10-12T18:19:01.811Z,6.68
2022-10-12T18:21:31.282Z,6.65
2022-10-12T18:24:03.418Z,5.20
2022-10-12T18:26:30.576Z,5.32
2022-10-12T18:29:00.019Z,5.95
2022-10-12T18:31:27.398Z,6.40
2022-10-12T18:33:55.141Z,6.40
2022-10-12T18:36:21.790Z,6.50
2022-10-12T18:38:48.506Z,6.75
2022-10-12T18:41:18.492Z,6.18
2022-10-12T18:43:45.081Z,6.53
2022-10-12T18:46:14.120Z,6.85
2022-10-12T18:48:41.156Z,6.15
2022-10-12T18:51:24.516Z,6.47
2022-10-12T18:53:51.519Z,6.50
2022-10-12T18:56:19.206Z,6.95
2022-10-12T18:58:45.920Z,6.60
2022-10-12T19:01:15.786Z,7.30
2022-10-12T19:03:42.501Z,6.57
2022-10-12T19:06:15.461Z,7.38
2022-10-12T19:08:45.897Z,7.53
2022-10-12T19:11:13.887Z,7.28
2022-10-12T19:13:41.473Z,8.18
2022-10-12T19:16:11.488Z,7.32
2022-10-12T19:18:38.975Z,8.80
2022-10-12T19:21:08.766Z,6.93
2022-10-12T19:23:35.495Z,8.70
2022-10-12T19:26:04.773Z,7.40
2022-10-12T19:28:31.763Z,7.40
2022-10-12T19:30:58.816Z,8.15
2022-10-12T19:33:27.206Z,7.53
2022-10-12T19:35:53.809Z,8.30
2022-10-12T19:38:20.461Z,6.32
2022-10-12T19:40:47.693Z,6.85
2022-10-12T19:43:14.309Z,7.50
2022-10-12T19:45:41.708Z,6.57
2022-10-12T19:48:08.922Z,7.53
2022-10-12T19:50:35.756Z,6.97
2022-10-12T19:53:02.715Z,5.63
2022-10-12T19:55:32.868Z,5.82
2022-10-12T19:58:03.396Z,5.38
2022-10-12T20:00:32.632Z,5.82
2022-10-12T20:02:59.239Z,5.13
2022-10-12T20:05:26.059Z,5.95
2022-10-12T20:07:52.645Z,5.03
2022-10-12T20:10:19.389Z,5.13
2022-10-12T20:12:45.999Z,5.57
2022-10-12T20:15:12.583Z,4.88
2022-10-12T20:17:39.418Z,4.63
2022-10-12T20:20:08.704Z,4.57
2022-10-12T20:22:35.364Z,4.28
2022-10-12T20:25:05.648Z,4.13
2022-10-12T20:27:36.542Z,3.42
2022-10-12T20:30:04.490Z,4.13
2022-10-12T20:32:31.079Z,3.25
2022-10-12T20:34:57.761Z,4.38
2022-10-12T20:37:24.399Z,3.90
2022-10-12T20:39:52.473Z,4.35
2022-10-12T20:42:21.853Z,5.45
2022-10-12T20:44:48.882Z,4.78
2022-10-12T20:47:15.519Z,5.35
2022-10-12T20:49:42.385Z,5.80
2022-10-12T20:52:09.331Z,5.93
2022-10-12T20:54:36.228Z,5.50
2022-10-12T20:57:04.840Z,4.68
2022-10-12T20:59:34.398Z,5.13
2022-10-12T21:02:00.979Z,5.05
2022-10-12T21:04:33.570Z,4.43
2022-10-12T21:07:03.058Z,4.97
2022-10-12T21:09:30.765Z,5.53
2022-10-12T21:11:57.340Z,6.03
2022-10-12T21:14:26.368Z,4.63
2022-10-12T21:16:53.247Z,4.97
2022-10-12T21:19:19.807Z,5.35
2022-10-12T21:21:49.167Z,4.88
2022-10-12T21:24:16.103Z,5.43
2022-10-12T21:26:43.496Z,5.20
2022-10-12T21:29:10.843Z,5.60
2022-10-12T21:31:37.977Z,5.47
2022-10-12T21:34:07.453Z,5.22
2022-10-12T21:36:36.453Z,5.28
2022-10-12T21:39:07.965Z,4.85
2022-10-12T21:41:34.813Z,5.35
2022-10-12T21:44:01.466Z,3.90
2022-10-12T21:46:32.651Z,4.22
2022-10-12T21:49:00.226Z,4.40
2022-10-12T21:51:28.387Z,3.78
2022-10-12T21:53:54.978Z,4.35
2022-10-12T21:56:24.660Z,4.80
2022-10-12T21:58:52.629Z,4.18
2022-10-12T22:01:24.909Z,4.07
2022-10-12T22:03:56.332Z,3.85
2022-10-12T22:06:24.564Z,3.47
2022-10-12T22:09:00.131Z,4.30
2022-10-12T22:11:29.449Z,4.53
2022-10-12T22:14:05.050Z,4.10
2022-10-12T22:16:32.196Z,4.45
2022-10-12T22:18:59.985Z,4.80
2022-10-12T22:21:32.709Z,4.10
2022-10-12T22:24:00.443Z,4.00
2022-10-12T22:26:27.643Z,4.22
2022-10-12T22:28:55.246Z,4.35
2022-10-12T22:31:24.652Z,4.10
2022-10-12T22:33:52.339Z,4.32
2022-10-12T22:36:19.156Z,4.25
2022-10-12T22:38:45.751Z,4.45
2022-10-12T22:41:17.351Z,4.22
2022-10-12T22:43:47.980Z,4.18
2022-10-12T22:46:14.730Z,4.65
2022-10-12T22:48:41.558Z,5.03
2022-10-12T22:51:10.907Z,5.05
2022-10-12T22:53:37.679Z,4.90
2022-10-12T22:56:08.023Z,6.00
2022-10-12T22:58:35.631Z,5.95
2022-10-12T23:01:03.972Z,6.25
2022-10-12T23:03:32.516Z,5.90
2022-10-12T23:06:02.949Z,6.22
2022-10-12T23:08:29.575Z,5.72
2022-10-12T23:11:04.772Z,7.10
2022-10-12T23:13:33.970Z,6.22
2022-10-12T23:16:05.215Z,4.70
2022-10-12T23:18:34.044Z,5.28
2022-10-12T23:21:04.804Z,5.32
2022-10-12T23:23:32.672Z,5.90
2022-10-12T23:26:05.427Z,5.25
2022-10-12T23:28:32.039Z,4.78
2022-10-12T23:30:58.938Z,4.75
2022-10-12T23:33:25.594Z,5.65
2022-10-12T23:36:00.888Z,4.95
2022-10-12T23:38:32.391Z,5.93
2022-10-12T23:40:58.946Z,5.07
2022-10-12T23:43:26.792Z,5.15
2022-10-12T23:45:55.669Z,5.75
2022-10-12T23:48:23.567Z,6.05
2022-10-12T23:50:51.901Z,5.22
2022-10-12T23:53:19.873Z,5.55
2022-10-12T23:55:46.952Z,5.65
2022-10-12T23:58:13.720Z,6.00
